createdAt,value
2022-08-18T00:02:46.520Z,21.2
2022-08-18T00:07:51.614Z,20.5
2022-08-18T00:12:57.722Z,20.8
2022-08-18T00:18:03.891Z,20.5
2022-08-18T00:23:09.905Z,20.8
2022-08-18T00:28:15.991Z,20.5
2022-08-18T00:33:22.084Z,20.8
2022-08-18T00:38:28.171Z,20.5
2022-08-18T00:43:34.269Z,20.5
2022-08-18T00:48:40.376Z,20.5
2022-08-18T00:53:46.455Z,20.5
2022-08-18T00:58:52.565Z,20.5
2022-08-18T01:03:58.649Z,20.5
2022-08-18T01:09:04.749Z,20.5
2022-08-18T01:14:09.845Z,20.5
2022-08-18T01:19:15.947Z,20.8
2022-08-18T01:24:22.036Z,20.5
2022-08-18T01:29:28.130Z,20.5
2022-08-18T01:34:34.227Z,20.2
2022-08-18T01:39:40.319Z,20.5
2022-08-18T01:44:46.433Z,19.9
2022-08-18T01:49:52.503Z,20.2
2022-08-18T01:54:58.620Z,19.9
2022-08-18T02:00:04.693Z,20.5
2022-08-18T02:05:10.797Z,20.2
2022-08-18T02:10:16.944Z,20.2
2022-08-18T02:15:23.000Z,20.2
2022-08-18T02:20:28.094Z,19.9
2022-08-18T02:25:34.242Z,20.2
2022-08-18T02:30:40.287Z,19.9
2022-08-18T02:35:46.389Z,19.9
2022-08-18T02:40:52.476Z,19.9
2022-08-18T02:45:58.563Z,19.6
2022-08-18T02:51:04.665Z,19.9
2022-08-18T02:56:10.768Z,19.6
2022-08-18T03:01:16.848Z,19.9
2022-08-18T03:06:22.960Z,19.6
2022-08-18T03:11:29.059Z,19.9
2022-08-18T03:16:35.129Z,19.6
2022-08-18T03:21:41.222Z,19.6
2022-08-18T03:26:46.346Z,19.2
2022-08-18T03:31:52.440Z,19.6
2022-08-18T03:36:58.550Z,19.6
2022-08-18T03:42:04.625Z,19.9
2022-08-18T03:47:10.709Z,19.2
2022-08-18T03:52:16.818Z,19.6
2022-08-18T03:57:22.916Z,19.2
2022-08-18T04:02:29.016Z,19.6
2022-08-18T04:07:35.094Z,19.6
2022-08-18T04:12:41.199Z,19.6
2022-08-18T04:17:47.280Z,19.9
2022-08-18T04:22:53.399Z,19.9
2022-08-18T04:27:59.485Z,18.9
2022-08-18T04:33:04.596Z,19.2
2022-08-18T04:38:10.672Z,19.9
2022-08-18T04:43:16.774Z,19.6
2022-08-18T04:48:22.870Z,19.9
2022-08-18T04:53:28.960Z,19.6
2022-08-18T04:58:35.070Z,19.9
2022-08-18T05:03:41.151Z,19.6
2022-08-18T05:08:47.251Z,20.5
2022-08-18T05:13:53.343Z,19.9
2022-08-18T05:18:59.450Z,19.9
2022-08-18T05:24:05.526Z,20.2
2022-08-18T05:29:11.688Z,19.9
2022-08-18T05:34:17.703Z,19.9
2022-08-18T05:39:22.820Z,19.9
2022-08-18T05:44:28.906Z,19.9
2022-08-18T05:49:35.022Z,20.5
2022-08-18T05:54:41.109Z,20.5
2022-08-18T05:59:47.204Z,20.5
2022-08-18T06:04:53.300Z,20.2
2022-08-18T06:09:59.380Z,20.2
2022-08-18T06:15:05.476Z,20.5
2022-08-18T06:20:11.566Z,20.8
2022-08-18T06:25:17.664Z,20.8
2022-08-18T06:30:23.757Z,20.5
2022-08-18T06:35:29.863Z,21.2
2022-08-18T06:40:35.966Z,21.2
2022-08-18T06:45:41.060Z,20.8
2022-08-18T06:50:47.176Z,20.8
2022-08-18T06:55:53.282Z,20.8
2022-08-18T07:00:59.346Z,20.8
2022-08-18T07:06:05.436Z,20.8
2022-08-18T07:11:11.554Z,20.8
2022-08-18T07:16:17.645Z,21.2
2022-08-18T07:21:23.736Z,20.8
2022-08-18T07:26:29.828Z,21.2
2022-08-18T07:31:35.935Z,21.2
2022-08-18T07:36:42.000Z,21.2
2022-08-18T07:41:48.108Z,21.5
2022-08-18T07:46:54.191Z,21.2
2022-08-18T07:51:59.306Z,22.1
2022-08-18T07:57:05.401Z,21.2
2022-08-18T08:02:11.485Z,20.8
2022-08-18T08:07:17.582Z,21.2
2022-08-18T08:12:23.673Z,21.5
2022-08-18T08:22:35.883Z,21.2
2022-08-18T08:27:41.979Z,21.5
2022-08-18T08:32:48.065Z,21.2
2022-08-18T08:37:54.167Z,21.5
2022-08-18T08:43:00.259Z,21.5
2022-08-18T08:48:06.347Z,21.5
2022-08-18T08:53:12.436Z,21.8
2022-08-18T08:58:17.545Z,21.8
2022-08-18T09:03:23.638Z,21.5
2022-08-18T09:08:29.748Z,21.5
2022-08-18T09:13:35.854Z,21.5
2022-08-18T09:18:41.941Z,21.5
2022-08-18T09:23:48.046Z,21.8
2022-08-18T09:28:53.139Z,21.8
2022-08-18T09:33:59.230Z,21.8
2022-08-18T09:39:05.323Z,21.8
2022-08-18T09:44:11.423Z,22.5
2022-08-18T09:49:17.513Z,22.1
2022-08-18T09:54:23.604Z,22.1
2022-08-18T09:59:29.709Z,22.5
2022-08-18T10:04:35.818Z,22.8
2022-08-18T10:09:41.873Z,23.1
2022-08-18T10:14:48.008Z,22.8
2022-08-18T10:19:54.105Z,22.8
2022-08-18T10:25:00.230Z,22.8
2022-08-18T10:30:06.283Z,22.8
2022-08-18T10:35:11.416Z,22.8
2022-08-18T10:40:17.516Z,22.8
2022-08-18T10:45:23.560Z,23.1
2022-08-18T10:50:29.648Z,22.5
2022-08-18T10:55:35.771Z,22.8
2022-08-18T11:00:41.873Z,23.1
2022-08-18T11:05:47.955Z,23.1
2022-08-18T11:10:54.071Z,23.7
2022-08-18T11:16:00.127Z,23.4
2022-08-18T11:21:06.297Z,22.8
2022-08-18T11:26:12.343Z,22.8
2022-08-18T11:31:18.419Z,22.8
2022-08-18T11:36:24.532Z,22.1
2022-08-18T11:41:29.627Z,22.8
2022-08-18T11:46:35.745Z,22.5
2022-08-18T11:51:41.838Z,22.1
2022-08-18T11:56:47.954Z,22.5
2022-08-18T12:01:54.000Z,22.5
2022-08-18T12:07:00.145Z,22.1
2022-08-18T12:12:06.180Z,23.1
2022-08-18T12:17:12.327Z,22.5
2022-08-18T12:22:18.425Z,22.1
2022-08-18T12:27:24.506Z,22.1
2022-08-18T12:32:30.570Z,22.5
2022-08-18T12:37:36.669Z,22.5
2022-08-18T12:42:42.764Z,22.8
2022-08-18T12:47:47.886Z,22.8
2022-08-18T12:52:53.980Z,22.8
2022-08-18T12:58:00.082Z,22.8
2022-08-18T13:03:06.182Z,23.1
2022-08-18T13:08:12.424Z,23.1
2022-08-18T13:13:18.366Z,22.8
2022-08-18T13:18:24.445Z,22.8
2022-08-18T13:23:30.537Z,22.5
2022-08-18T13:28:36.632Z,22.5
2022-08-18T13:33:42.725Z,22.1
2022-08-18T13:38:48.816Z,22.1
2022-08-18T13:43:54.969Z,22.1
2022-08-18T13:49:01.003Z,22.5
2022-08-18T13:54:06.113Z,22.5
2022-08-18T13:59:12.219Z,22.5
2022-08-18T14:04:18.320Z,22.5
2022-08-18T14:09:24.404Z,22.1
2022-08-18T14:14:30.487Z,22.5
2022-08-18T14:19:36.594Z,22.5
2022-08-18T14:24:42.680Z,22.1
2022-08-18T14:29:48.804Z,22.8
2022-08-18T14:34:54.869Z,22.5
2022-08-18T14:40:00.977Z,23.1
2022-08-18T14:50:13.125Z,22.5
2022-08-18T14:55:19.225Z,22.5
2022-08-18T15:00:24.348Z,22.8
2022-08-18T15:05:30.423Z,22.8
2022-08-18T15:10:36.527Z,22.5
2022-08-18T15:15:42.621Z,23.4
2022-08-18T15:20:48.687Z,22.8
2022-08-18T15:25:54.804Z,22.8
2022-08-18T15:31:00.895Z,23.1
2022-08-18T15:36:07.007Z,23.1
2022-08-18T15:41:13.104Z,23.1
2022-08-18T15:46:19.179Z,23.1
2022-08-18T15:51:25.298Z,22.5
2022-08-18T15:56:31.417Z,22.5
2022-08-18T16:01:37.471Z,22.5
2022-08-18T16:06:42.588Z,22.8
2022-08-18T16:11:48.675Z,22.5
2022-08-18T16:16:55.157Z,22.5
2022-08-18T16:22:00.871Z,22.5
2022-08-18T16:27:06.959Z,22.5
2022-08-18T16:32:13.054Z,22.1
2022-08-18T16:37:19.140Z,22.8
2022-08-18T16:42:25.250Z,23.1
2022-08-18T16:47:31.344Z,22.5
2022-08-18T16:52:37.424Z,22.8
2022-08-18T16:57:43.519Z,22.5
2022-08-18T17:02:49.638Z,22.8
2022-08-18T17:07:55.746Z,22.1
2022-08-18T17:13:00.863Z,22.1
2022-08-18T17:18:06.936Z,22.5
2022-08-18T17:23:13.028Z,22.1
2022-08-18T17:28:19.133Z,22.5
2022-08-18T17:33:25.209Z,22.5
2022-08-18T17:38:31.303Z,22.1
2022-08-18T17:43:37.402Z,22.5
2022-08-18T17:48:43.485Z,22.1
2022-08-18T17:53:49.603Z,22.1
2022-08-18T17:58:55.670Z,22.8
2022-08-18T18:04:01.765Z,22.1
2022-08-18T18:09:07.865Z,22.5
2022-08-18T18:14:13.952Z,22.1
2022-08-18T18:19:19.077Z,21.8
2022-08-18T18:24:25.179Z,21.8
2022-08-18T18:29:31.261Z,21.8
2022-08-18T18:34:37.365Z,22.1
2022-08-18T18:39:43.442Z,22.1
2022-08-18T18:44:49.567Z,22.1
2022-08-18T18:49:55.644Z,22.1
2022-08-18T18:55:01.746Z,21.8
2022-08-18T19:00:07.845Z,21.8
2022-08-18T19:05:13.949Z,21.8
2022-08-18T19:10:20.033Z,21.8
2022-08-18T19:15:26.128Z,21.8
2022-08-18T19:20:32.208Z,22.1
2022-08-18T19:30:43.445Z,21.5
2022-08-18T19:35:49.531Z,21.5
2022-08-18T19:40:55.633Z,21.5
2022-08-18T19:46:01.721Z,21.5
2022-08-18T19:51:07.796Z,21.5
2022-08-18T19:56:13.899Z,22.1
2022-08-18T20:01:20.008Z,21.5
2022-08-18T20:06:26.090Z,21.8
2022-08-18T20:11:32.189Z,21.2
2022-08-18T20:16:38.270Z,21.2
2022-08-18T20:21:44.361Z,21.5
2022-08-18T20:26:50.465Z,21.2
2022-08-18T20:31:55.571Z,21.2
2022-08-18T20:37:01.668Z,21.5
2022-08-18T20:42:07.768Z,21.2
2022-08-18T20:47:13.847Z,21.2
2022-08-18T20:52:19.942Z,21.2
2022-08-18T20:57:26.050Z,21.5
2022-08-18T21:02:32.131Z,20.8
2022-08-18T21:07:38.231Z,21.2
2022-08-18T21:12:44.331Z,21.2
2022-08-18T21:17:50.688Z,21.2
2022-08-18T21:22:56.743Z,21.2
2022-08-18T21:28:02.837Z,21.2
2022-08-18T21:33:08.979Z,21.5
2022-08-18T21:38:14.098Z,21.2
2022-08-18T21:43:20.201Z,20.8
2022-08-18T21:48:26.298Z,20.8
2022-08-18T21:53:32.386Z,20.8
2022-08-18T21:58:38.475Z,20.8
2022-08-18T22:03:44.568Z,20.5
2022-08-18T22:08:50.656Z,20.8
2022-08-18T22:13:56.754Z,20.5
2022-08-18T22:19:02.861Z,21.2
2022-08-18T22:24:08.936Z,20.5
2022-08-18T22:29:15.046Z,20.5
2022-08-18T22:34:21.123Z,20.8
2022-08-18T22:39:27.223Z,20.8
2022-08-18T22:44:32.347Z,20.2
2022-08-18T22:49:38.429Z,20.5
2022-08-18T22:54:44.528Z,20.5
2022-08-18T22:59:50.629Z,20.2
2022-08-18T23:04:56.708Z,20.5
2022-08-18T23:15:08.884Z,20.2
2022-08-18T23:20:14.991Z,20.2
2022-08-18T23:25:21.088Z,20.5
2022-08-18T23:30:27.173Z,20.2
2022-08-18T23:35:33.274Z,20.2
2022-08-18T23:40:39.372Z,20.5
2022-08-18T23:45:45.459Z,20.5
2022-08-18T23:50:50.567Z,20.2
2022-08-18T23:55:56.671Z,20.5
